Time;durP1;ratioP1;P1;durP2;ratioP2;P2;SDS_P1;SDS_P2;PMS_P1;PMS_P2;Temp;Humidity;BMP_temperature;BMP_pressure;BME280_temperature;BME280_humidity;BME280_pressure;Samples;Min_cycle;Max_cycle;Signal;HPM_P1;HPM_P2
2022/06/20 00:02:24;;;;;;;9.40;2.22;;;14.00;99.90;;;;;;5000305;28;20060;-89
2022/06/20 00:04:51;;;;;;;8.02;2.40;;;14.00;99.90;;;;;;4995402;28;20037;-90
2022/06/20 00:07:17;;;;;;;9.50;2.70;;;14.00;99.90;;;;;;4998689;28;20402;-89
2022/06/20 00:09:43;;;;;;;8.75;2.67;;;13.90;99.90;;;;;;4977359;28;20961;-88
2022/06/20 00:12:17;;;;;;;11.18;2.70;;;13.90;99.90;;;;;;4992539;28;20066;-88
2022/06/20 00:14:43;;;;;;;8.45;2.55;;;13.90;99.90;;;;;;4980165;28;20049;-89
2022/06/20 00:17:12;;;;;;;9.25;2.40;;;13.80;99.90;;;;;;4982254;28;20054;-88
2022/06/20 00:19:38;;;;;;;7.60;2.42;;;13.80;99.90;;;;;;4989521;28;20124;-91
2022/06/20 00:22:03;;;;;;;9.02;2.58;;;13.70;99.90;;;;;;4979434;28;20144;-88
2022/06/20 00:24:30;;;;;;;7.05;1.92;;;13.70;99.90;;;;;;4992454;28;20042;-89
2022/06/20 00:26:56;;;;;;;9.40;2.53;;;13.70;99.90;;;;;;4978965;28;20042;-88
2022/06/20 00:29:21;;;;;;;9.40;2.38;;;13.70;99.90;;;;;;4975073;28;20398;-90
2022/06/20 00:31:47;;;;;;;9.68;2.30;;;13.70;99.90;;;;;;4997416;28;20038;-89
2022/06/20 00:34:13;;;;;;;8.30;2.35;;;13.60;99.90;;;;;;4995276;28;20061;-89
2022/06/20 00:36:39;;;;;;;8.80;2.53;;;13.60;99.90;;;;;;4990828;28;20049;-89
2022/06/20 00:39:05;;;;;;;9.35;3.22;;;13.60;99.90;;;;;;4978054;28;20054;-90
2022/06/20 00:41:33;;;;;;;8.68;2.50;;;13.60;99.90;;;;;;4997198;28;20426;-89
2022/06/20 00:43:59;;;;;;;10.02;2.58;;;13.70;99.90;;;;;;4994360;28;20078;-88
2022/06/20 00:46:45;;;;;;;8.48;2.53;;;13.60;99.90;;;;;;4993867;28;20713;-88
2022/06/20 00:49:16;;;;;;;7.63;2.45;;;13.60;99.90;;;;;;4997670;28;20037;-89
2022/06/20 00:51:49;;;;;;;13.35;2.90;;;13.60;99.90;;;;;;5005244;28;20052;-89
2022/06/20 00:54:57;;;;;;;9.93;2.78;;;13.60;99.90;;;;;;4993604;28;20038;-90
2022/06/20 00:57:35;;;;;;;9.10;3.03;;;13.60;99.90;;;;;;4994749;28;20457;-89
2022/06/20 01:00:12;;;;;;;8.35;2.63;;;13.60;99.90;;;;;;5013851;28;20046;-89
2022/06/20 01:02:48;;;;;;;6.97;2.63;;;13.60;99.90;;;;;;5004963;28;20051;-90
2022/06/20 01:05:27;;;;;;;11.40;3.85;;;13.60;99.90;;;;;;4996508;28;20153;-90
2022/06/20 01:08:07;;;;;;;9.43;2.80;;;13.60;99.90;;;;;;5002527;28;20062;-90
2022/06/20 01:10:58;;;;;;;11.88;3.42;;;13.60;99.90;;;;;;4999398;28;20042;-88
2022/06/20 01:13:26;;;;;;;11.07;2.75;;;13.60;99.90;;;;;;5000846;28;20073;-90
2022/06/20 01:15:54;;;;;;;8.80;3.08;;;13.60;99.90;;;;;;5000213;28;20038;-89
2022/06/20 01:18:28;;;;;;;8.88;2.85;;;13.60;99.90;;;;;;5002849;28;20493;-89
2022/06/20 01:20:56;;;;;;;8.05;2.72;;;13.60;99.90;;;;;;5002472;28;20046;-89
2022/06/20 01:23:34;;;;;;;8.43;3.00;;;13.70;99.90;;;;;;4998634;28;20038;-91
2022/06/20 01:26:18;;;;;;;8.50;2.88;;;13.60;99.90;;;;;;5022902;28;20394;-89
2022/06/20 01:28:47;;;;;;;9.63;3.05;;;13.60;99.90;;;;;;5003078;28;20046;-90
2022/06/20 01:31:15;;;;;;;9.00;2.88;;;13.60;99.90;;;;;;4996762;28;20363;-90
2022/06/20 01:33:41;;;;;;;8.88;2.80;;;13.60;99.90;;;;;;4997049;28;20122;-89
2022/06/20 01:38:55;;;;;;;9.50;2.75;;;13.60;99.90;;;;;;5001009;28;20482;-90
2022/06/20 01:44:06;;;;;;;9.48;2.85;;;13.60;99.90;;;;;;5001807;28;20046;-89
2022/06/20 01:46:34;;;;;;;9.15;3.00;;;13.60;99.90;;;;;;4995716;28;20050;-90
2022/06/20 01:49:10;;;;;;;6.20;2.75;;;13.60;99.90;;;;;;4984040;28;20125;-88
2022/06/20 01:51:46;;;;;;;10.57;3.08;;;13.60;99.90;;;;;;4998382;28;20038;-90
2022/06/20 01:54:14;;;;;;;11.32;3.20;;;13.60;99.90;;;;;;4984379;28;20504;-88
2022/06/20 01:56:43;;;;;;;9.95;3.05;;;13.50;99.90;;;;;;4999109;28;20192;-90
2022/06/20 01:59:29;;;;;;;8.32;3.22;;;13.50;99.90;;;;;;4993365;28;20057;-89
2022/06/20 02:01:56;;;;;;;9.45;3.13;;;13.50;99.90;;;;;;5000100;28;20521;-90
2022/06/20 02:04:27;;;;;;;10.00;3.45;;;13.40;99.90;;;;;;4994726;28;20080;-89
2022/06/20 02:06:53;;;;;;;7.95;2.97;;;13.40;99.90;;;;;;4978990;28;20050;-91
2022/06/20 02:09:19;;;;;;;10.48;3.00;;;13.40;99.90;;;;;;4985854;28;20054;-89
2022/06/20 02:11:47;;;;;;;9.40;2.85;;;13.40;99.90;;;;;;5003448;28;20399;-92
2022/06/20 02:14:23;;;;;;;11.00;3.20;;;13.30;99.90;;;;;;4998602;28;20054;-91
2022/06/20 02:16:56;;;;;;;11.18;3.63;;;13.30;99.90;;;;;;4995688;28;20379;-89
2022/06/20 02:19:29;;;;;;;10.00;3.67;;;13.30;99.90;;;;;;4984709;28;20050;-89
2022/06/20 02:22:02;;;;;;;8.95;3.50;;;13.30;99.90;;;;;;4981267;28;20423;-91
2022/06/20 02:24:32;;;;;;;10.55;3.72;;;13.20;99.90;;;;;;5000498;28;20429;-90
2022/06/20 02:27:01;;;;;;;11.43;3.92;;;13.20;99.90;;;;;;5004845;28;20053;-89
2022/06/20 02:29:30;;;;;;;10.90;3.47;;;13.10;99.90;;;;;;4995533;28;20467;-89
2022/06/20 02:32:15;;;;;;;8.63;3.00;;;13.10;99.90;;;;;;4981627;28;20049;-90
2022/06/20 02:34:41;;;;;;;11.13;4.28;;;13.10;99.90;;;;;;4996574;28;20082;-88
2022/06/20 02:37:11;;;;;;;8.95;3.75;;;13.00;99.90;;;;;;4995146;28;20062;-88
2022/06/20 02:39:41;;;;;;;9.73;3.67;;;13.00;99.90;;;;;;4984541;28;20038;-88
2022/06/20 02:42:24;;;;;;;9.85;3.50;;;13.00;99.90;;;;;;4979252;28;20405;-89
2022/06/20 02:44:50;;;;;;;10.50;3.92;;;13.00;99.90;;;;;;4999124;28;20425;-88
2022/06/20 02:47:19;;;;;;;10.48;3.70;;;12.90;99.90;;;;;;5003042;28;20049;-89
2022/06/20 02:49:46;;;;;;;10.15;3.60;;;12.90;99.90;;;;;;4998858;28;20048;-88
2022/06/20 02:52:19;;;;;;;8.13;3.40;;;12.90;99.90;;;;;;4986885;28;20069;-88
2022/06/20 02:54:47;;;;;;;10.50;3.90;;;12.80;99.90;;;;;;5003109;28;20050;-89
2022/06/20 02:57:25;;;;;;;9.15;3.58;;;12.80;99.90;;;;;;4993697;28;20043;-89
2022/06/20 02:59:53;;;;;;;9.88;3.50;;;12.70;99.90;;;;;;4996357;28;20046;-88
2022/06/20 03:02:23;;;;;;;10.50;3.67;;;12.60;99.90;;;;;;5000065;28;20050;-89
2022/06/20 03:04:50;;;;;;;10.00;3.75;;;12.60;99.90;;;;;;4995103;28;21262;-90
2022/06/20 03:07:21;;;;;;;9.45;3.95;;;12.60;99.90;;;;;;4995315;28;20089;-89
2022/06/20 03:09:52;;;;;;;8.88;3.60;;;12.50;99.90;;;;;;4973578;28;20054;-88
2022/06/20 03:12:18;;;;;;;9.65;3.47;;;12.50;99.90;;;;;;4995878;28;20506;-88
2022/06/20 03:14:49;;;;;;;9.38;3.80;;;12.50;99.90;;;;;;4995805;28;20042;-88
2022/06/20 03:17:17;;;;;;;10.15;3.65;;;12.50;99.90;;;;;;5001643;28;20088;-88
2022/06/20 03:19:47;;;;;;;10.30;3.50;;;12.40;99.90;;;;;;4976510;28;20054;-88
2022/06/20 03:22:16;;;;;;;9.63;3.63;;;12.40;99.90;;;;;;5001805;28;20034;-88
2022/06/20 03:24:42;;;;;;;9.13;4.00;;;12.40;99.90;;;;;;4994548;28;20378;-88
2022/06/20 03:27:20;;;;;;;10.90;3.35;;;12.40;99.90;;;;;;5002497;28;20131;-89
2022/06/20 03:29:50;;;;;;;8.52;3.70;;;12.40;99.90;;;;;;4994015;28;20038;-88
2022/06/20 03:32:16;;;;;;;8.93;3.50;;;12.30;99.90;;;;;;4996587;28;20431;-88
2022/06/20 03:34:41;;;;;;;8.95;3.67;;;12.20;99.90;;;;;;4996998;28;20179;-89
2022/06/20 03:37:08;;;;;;;11.45;4.00;;;12.30;99.90;;;;;;4995027;28;20144;-88
2022/06/20 03:39:35;;;;;;;9.98;4.07;;;12.20;99.90;;;;;;4982368;28;20078;-88
2022/06/20 03:42:02;;;;;;;8.68;3.70;;;12.20;99.90;;;;;;4997031;28;20044;-88
2022/06/20 03:44:42;;;;;;;9.55;3.92;;;12.20;99.90;;;;;;4979677;28;20382;-88
2022/06/20 03:47:14;;;;;;;10.30;4.20;;;12.20;99.90;;;;;;5000918;28;20046;-88
2022/06/20 03:49:59;;;;;;;8.40;4.13;;;12.20;99.90;;;;;;4999614;28;20038;-88
2022/06/20 03:52:29;;;;;;;10.45;4.10;;;12.20;99.90;;;;;;4997076;28;20048;-87
2022/06/20 03:54:59;;;;;;;8.73;4.15;;;12.20;99.90;;;;;;4993722;28;20034;-87
2022/06/20 03:57:29;;;;;;;10.70;4.30;;;12.20;99.90;;;;;;4993872;28;20038;-87
2022/06/20 04:00:11;;;;;;;11.38;4.80;;;12.20;99.90;;;;;;4977108;28;20046;-87
2022/06/20 04:02:56;;;;;;;9.65;3.88;;;12.20;99.90;;;;;;4997328;28;20050;-87
2022/06/20 04:05:34;;;;;;;9.00;4.07;;;12.20;99.90;;;;;;4982114;28;20046;-87
2022/06/20 04:08:15;;;;;;;8.57;3.90;;;12.10;99.90;;;;;;4998109;28;20133;-88
2022/06/20 04:11:01;;;;;;;9.90;4.32;;;12.20;99.90;;;;;;4994344;28;20037;-88
2022/06/20 04:13:54;;;;;;;9.35;4.13;;;12.10;99.90;;;;;;4997749;28;20406;-89
2022/06/20 04:16:31;;;;;;;12.00;4.50;;;12.20;99.90;;;;;;4996339;28;20172;-89
2022/06/20 04:19:23;;;;;;;8.80;4.00;;;12.20;99.90;;;;;;5003544;28;20453;-87
2022/06/20 04:21:53;;;;;;;9.23;4.55;;;12.20;99.90;;;;;;5003155;28;20053;-88
2022/06/20 04:24:27;;;;;;;10.45;4.07;;;12.30;99.90;;;;;;5002637;28;20073;-89
2022/06/20 04:26:56;;;;;;;10.93;4.40;;;12.40;99.90;;;;;;5001395;28;20073;-88
2022/06/20 04:29:38;;;;;;;9.13;3.72;;;12.40;99.90;;;;;;4983876;28;20042;-89
2022/06/20 04:32:13;;;;;;;8.27;4.20;;;12.60;99.90;;;;;;5007026;28;20050;-88
2022/06/20 04:34:58;;;;;;;9.95;4.40;;;12.60;99.90;;;;;;5001499;28;20049;-88
2022/06/20 04:37:35;;;;;;;9.48;4.05;;;12.70;99.90;;;;;;5000172;28;20133;-89
2022/06/20 04:40:10;;;;;;;9.85;3.92;;;12.80;99.90;;;;;;5001661;28;20161;-89
2022/06/20 04:42:57;;;;;;;10.25;4.00;;;12.80;99.90;;;;;;4999635;28;20069;-89
2022/06/20 04:45:28;;;;;;;8.55;3.50;;;12.90;99.90;;;;;;5001930;28;20030;-89
2022/06/20 04:48:12;;;;;;;9.23;3.80;;;13.00;99.90;;;;;;4999850;28;20057;-89
2022/06/20 04:50:44;;;;;;;10.65;3.70;;;13.10;99.90;;;;;;5002180;28;20054;-88
2022/06/20 04:53:14;;;;;;;9.98;3.78;;;13.20;99.90;;;;;;4989667;28;20088;-87
2022/06/20 04:55:43;;;;;;;11.07;3.75;;;13.30;99.90;;;;;;5001762;28;20045;-93
2022/06/20 04:58:13;;;;;;;9.52;3.40;;;13.40;99.90;;;;;;4988572;28;20046;-94
2022/06/20 05:00:42;;;;;;;10.77;4.10;;;13.40;99.90;;;;;;5003246;28;20049;-92
2022/06/20 05:03:13;;;;;;;9.18;3.72;;;13.40;99.90;;;;;;5003598;28;20088;-94
2022/06/20 05:05:43;;;;;;;9.20;4.13;;;13.40;99.90;;;;;;5003440;28;20486;-92
2022/06/20 05:08:12;;;;;;;8.35;3.42;;;13.50;99.90;;;;;;5004166;28;20065;-93
2022/06/20 05:10:52;;;;;;;10.63;3.95;;;13.50;99.90;;;;;;4998385;28;20382;-95
2022/06/20 05:13:48;;;;;;;9.07;3.70;;;13.60;99.90;;;;;;5003546;28;20042;-91
2022/06/20 05:16:18;;;;;;;9.32;3.90;;;13.70;99.90;;;;;;4992595;28;20506;-91
2022/06/20 05:18:48;;;;;;;10.38;3.97;;;13.70;99.90;;;;;;5008406;28;20046;-94
2022/06/20 05:21:22;;;;;;;9.20;3.50;;;13.80;99.90;;;;;;5003483;28;20112;-94
2022/06/20 05:23:52;;;;;;;9.48;4.00;;;13.90;99.90;;;;;;4989911;28;20056;-92
2022/06/20 05:26:22;;;;;;;10.40;3.88;;;14.00;99.90;;;;;;5001488;28;20415;-92
2022/06/20 05:28:51;;;;;;;8.20;3.70;;;14.00;99.90;;;;;;5000689;28;20169;-90
2022/06/20 05:31:22;;;;;;;13.93;4.53;;;14.10;99.90;;;;;;5004833;28;20121;-90
2022/06/20 05:34:11;;;;;;;9.32;3.75;;;14.20;99.90;;;;;;5003719;28;20125;-90
2022/06/20 05:36:52;;;;;;;9.63;3.92;;;14.30;99.90;;;;;;4991807;28;20092;-90
2022/06/20 05:39:20;;;;;;;;;;;14.40;99.90;;;;;;5006241;28;20050;-91
2022/06/20 05:41:47;;;;;;;10.23;3.88;;;14.30;99.90;;;;;;5000620;28;19922;-90
2022/06/20 05:44:13;;;;;;;9.23;3.95;;;14.40;99.90;;;;;;4999046;28;20042;-90
2022/06/20 05:46:48;;;;;;;11.38;4.00;;;14.50;99.90;;;;;;4996857;28;20352;-93
2022/06/20 05:49:25;;;;;;;9.20;3.65;;;14.60;99.90;;;;;;5000764;28;20046;-92
2022/06/20 05:51:52;;;;;;;9.30;3.78;;;14.70;99.90;;;;;;5006823;28;20046;-95
2022/06/20 05:54:22;;;;;;;9.98;4.10;;;14.80;99.90;;;;;;5002177;28;20050;-96
2022/06/20 05:57:02;;;;;;;12.60;4.10;;;14.90;99.90;;;;;;5208894;22;20413;-94
2022/06/20 05:59:27;;;;;;;10.38;3.90;;;15.00;99.90;;;;;;4989424;28;20556;-92
2022/06/20 06:02:14;;;;;;;10.75;4.30;;;15.10;99.90;;;;;;5006076;28;20049;-95
2022/06/20 06:05:00;;;;;;;10.10;3.85;;;15.10;99.90;;;;;;5004240;28;20045;-96
2022/06/20 06:07:36;;;;;;;10.60;3.72;;;15.20;99.90;;;;;;5154261;23;20043;-92
2022/06/20 06:10:27;;;;;;;9.25;3.80;;;15.30;99.90;;;;;;4991784;28;20042;-92
2022/06/20 06:13:13;;;;;;;10.53;4.13;;;15.40;99.90;;;;;;4984543;28;20301;-94
2022/06/20 06:19:18;;;;;;;11.98;4.05;;;15.50;99.90;;;;;;4986778;28;20042;-93
2022/06/20 06:21:47;;;;;;;10.85;4.30;;;15.60;99.90;;;;;;5006939;28;20049;-95
2022/06/20 06:24:16;;;;;;;10.93;3.90;;;15.70;99.90;;;;;;4981515;28;20074;-95
2022/06/20 06:26:43;;;;;;;11.50;4.57;;;15.70;99.90;;;;;;4983418;28;20077;-87
2022/06/20 06:29:27;;;;;;;10.88;4.10;;;15.80;99.90;;;;;;4966613;28;20170;-94
2022/06/20 06:32:01;;;;;;;12.27;4.10;;;15.90;99.90;;;;;;4990024;28;20034;-93
2022/06/20 06:34:38;;;;;;;10.32;4.40;;;16.00;99.90;;;;;;4990144;28;20043;-93
2022/06/20 06:37:21;;;;;;;9.73;3.97;;;16.20;99.90;;;;;;4982417;28;20121;-96
2022/06/20 06:40:00;;;;;;;13.20;4.60;;;16.30;99.90;;;;;;4983850;28;20050;-94
2022/06/20 06:42:26;;;;;;;11.45;4.25;;;16.20;99.90;;;;;;4990352;28;20050;-96
2022/06/20 06:44:53;;;;;;;10.00;4.15;;;16.20;99.90;;;;;;4988248;28;20038;-95
2022/06/20 06:47:42;;;;;;;12.02;3.95;;;16.10;99.90;;;;;;4978567;28;20051;-96
2022/06/20 06:50:31;;;;;;;10.85;4.45;;;16.10;99.90;;;;;;4992329;28;20510;-96
2022/06/20 06:53:02;;;;;;;11.27;4.10;;;16.00;99.90;;;;;;4982476;28;20030;-95
2022/06/20 06:55:38;;;;;;;10.52;4.10;;;16.00;99.90;;;;;;4969139;28;20058;-93
2022/06/20 06:58:29;;;;;;;10.30;3.58;;;16.00;99.90;;;;;;4962838;28;20085;-95
2022/06/20 07:01:11;;;;;;;10.73;4.03;;;16.00;99.90;;;;;;4967466;28;20038;-88
2022/06/20 07:03:43;;;;;;;10.73;3.90;;;15.90;99.90;;;;;;4968569;28;20046;-96
2022/06/20 07:06:26;;;;;;;10.43;4.13;;;15.90;99.90;;;;;;4954727;28;20210;-95
2022/06/20 07:09:08;;;;;;;9.38;3.95;;;15.90;99.90;;;;;;4982179;28;20053;-90
2022/06/20 07:11:39;;;;;;;10.98;3.90;;;15.80;99.90;;;;;;4981969;28;20046;-90
2022/06/20 07:14:22;;;;;;;11.52;3.92;;;15.90;99.90;;;;;;4977594;28;20057;-91
2022/06/20 07:17:00;;;;;;;9.23;3.70;;;15.90;99.90;;;;;;4978077;28;20046;-92
2022/06/20 07:19:27;;;;;;;10.05;4.13;;;16.00;99.90;;;;;;4982238;28;20054;-90
2022/06/20 07:21:56;;;;;;;10.77;3.85;;;16.10;99.90;;;;;;4979800;28;20394;-88
2022/06/20 07:24:26;;;;;;;8.68;3.55;;;16.50;99.90;;;;;;4986154;28;20045;-92
2022/06/20 07:27:02;;;;;;;10.57;3.10;;;16.50;99.90;;;;;;4963181;28;20035;-91
2022/06/20 07:29:35;;;;;;;10.52;3.83;;;16.50;99.90;;;;;;4981199;28;20711;-94
2022/06/20 07:32:09;;;;;;;10.60;3.40;;;16.50;99.90;;;;;;4982089;28;20038;-90
2022/06/20 07:34:46;;;;;;;9.40;3.40;;;16.40;99.90;;;;;;4985936;28;20082;-92
2022/06/20 07:37:11;;;;;;;9.63;4.38;;;16.30;99.90;;;;;;5004991;28;20038;-90
2022/06/20 07:39:51;;;;;;;9.77;3.80;;;16.30;99.90;;;;;;4978647;28;20058;-94
2022/06/20 07:42:25;;;;;;;10.55;3.35;;;16.40;99.90;;;;;;4978170;28;20034;-89
2022/06/20 07:45:02;;;;;;;9.38;3.50;;;16.50;99.90;;;;;;4980782;28;20070;-87
2022/06/20 07:47:52;;;;;;;9.18;3.35;;;16.50;99.90;;;;;;4978002;28;20031;-90
2022/06/20 07:50:24;;;;;;;10.20;3.10;;;16.60;99.90;;;;;;4983762;28;20051;-92
2022/06/20 07:53:09;;;;;;;8.98;3.00;;;16.70;99.90;;;;;;4976164;28;20039;-89
2022/06/20 07:55:39;;;;;;;7.80;3.13;;;16.80;99.90;;;;;;4972261;28;20039;-93
2022/06/20 07:58:17;;;;;;;8.63;3.87;;;16.90;99.90;;;;;;4986401;28;20081;-95
2022/06/20 08:00:48;;;;;;;11.23;3.83;;;17.00;99.90;;;;;;4968195;28;20045;-95
2022/06/20 08:03:30;;;;;;;9.88;3.58;;;17.10;99.90;;;;;;5010875;28;20043;-95
2022/06/20 08:06:04;;;;;;;8.10;3.03;;;17.30;99.90;;;;;;4986299;28;20085;-92
2022/06/20 08:08:46;;;;;;;9.98;3.45;;;17.40;99.90;;;;;;4973519;28;20046;-94
2022/06/20 08:11:40;;;;;;;9.73;3.08;;;17.50;99.90;;;;;;4981595;28;20039;-93
2022/06/20 08:14:38;;;;;;;10.07;3.38;;;17.40;99.90;;;;;;4975716;28;20072;-93
2022/06/20 08:17:10;;;;;;;9.65;3.17;;;17.20;99.90;;;;;;4948574;28;20061;-86
2022/06/20 08:19:38;;;;;;;7.43;2.88;;;17.10;99.90;;;;;;4973384;28;20061;-91
2022/06/20 08:22:17;;;;;;;8.48;3.45;;;17.00;99.90;;;;;;4979824;28;20043;-91
2022/06/20 08:24:46;;;;;;;10.52;3.30;;;17.10;99.90;;;;;;4963957;28;20113;-93
2022/06/20 08:27:38;;;;;;;8.88;3.10;;;17.20;99.90;;;;;;4982530;28;20446;-90
2022/06/20 08:30:33;;;;;;;9.52;3.00;;;17.50;99.90;;;;;;4979526;28;20050;-90
2022/06/20 08:33:05;;;;;;;10.13;3.30;;;17.70;99.90;;;;;;4973193;28;20116;-92
2022/06/20 08:35:33;;;;;;;11.50;3.15;;;17.70;99.90;;;;;;4977669;28;20046;-92
2022/06/20 08:38:18;;;;;;;9.15;3.20;;;17.60;99.90;;;;;;4966929;28;20047;-93
2022/06/20 08:41:29;;;;;;;8.65;2.60;;;17.70;99.90;;;;;;4962765;28;20100;-89
2022/06/20 08:44:29;;;;;;;10.90;2.42;;;17.80;99.90;;;;;;4919291;29;20119;-92
2022/06/20 08:47:19;;;;;;;8.57;2.72;;;18.00;99.90;;;;;;4884050;29;20079;-92
2022/06/20 08:50:21;;;;;;;8.57;2.92;;;18.10;99.90;;;;;;4902146;29;20076;-90
2022/06/20 08:52:58;;;;;;;8.38;2.90;;;18.10;99.90;;;;;;4912857;29;20048;-87
2022/06/20 08:55:52;;;;;;;9.93;3.15;;;18.20;99.90;;;;;;4915560;29;20146;-90
2022/06/20 08:58:36;;;;;;;8.40;2.63;;;18.20;99.80;;;;;;4903519;29;20135;-89
2022/06/20 09:01:39;;;;;;;9.55;2.65;;;18.00;99.90;;;;;;4902980;29;20052;-93
2022/06/20 09:04:17;;;;;;;8.60;2.50;;;18.00;99.90;;;;;;4901852;29;20055;-88
2022/06/20 09:07:07;;;;;;;7.30;2.50;;;17.90;99.90;;;;;;4918753;29;20052;-89
2022/06/20 09:09:54;;;;;;;5.93;1.70;;;17.80;99.90;;;;;;4916052;29;20093;-88
2022/06/20 09:12:40;;;;;;;5.32;1.55;;;17.80;98.50;;;;;;4919448;29;20055;-95
2022/06/20 09:15:20;;;;;;;7.78;2.05;;;17.70;98.80;;;;;;4908160;29;20052;-94
2022/06/20 09:18:08;;;;;;;5.25;1.40;;;17.70;97.50;;;;;;4932644;29;20044;-95
2022/06/20 09:20:59;;;;;;;5.68;1.77;;;17.90;98.30;;;;;;4867922;29;20060;-90
2022/06/20 09:23:57;;;;;;;5.75;1.70;;;18.00;96.00;;;;;;4890172;29;20351;-95
2022/06/20 09:26:46;;;;;;;7.55;1.90;;;18.30;97.50;;;;;;4894241;29;20453;-87
2022/06/20 09:29:44;;;;;;;4.68;1.67;;;18.50;96.20;;;;;;4890413;29;20048;-91
2022/06/20 09:32:48;;;;;;;6.20;1.98;;;18.50;96.40;;;;;;4908384;29;20124;-90
2022/06/20 09:35:13;;;;;;;4.95;1.90;;;18.40;97.40;;;;;;4908880;29;20433;-90
2022/06/20 09:37:41;;;;;;;6.38;1.95;;;18.20;97.90;;;;;;4893651;29;20164;-90
2022/06/20 09:40:28;;;;;;;6.22;1.90;;;18.20;98.40;;;;;;4893605;29;20048;-86
2022/06/20 09:43:05;;;;;;;5.82;1.95;;;18.30;98.40;;;;;;4893578;29;20146;-88
2022/06/20 09:45:33;;;;;;;6.00;2.20;;;18.50;98.50;;;;;;4896318;29;20171;-90
2022/06/20 09:48:11;;;;;;;5.60;2.08;;;18.80;97.90;;;;;;4891937;29;20048;-87
2022/06/20 09:51:00;;;;;;;7.70;2.08;;;18.60;97.80;;;;;;4906247;29;20059;-88
2022/06/20 09:53:40;;;;;;;6.45;1.90;;;18.40;96.80;;;;;;4908532;29;20052;-89
2022/06/20 09:56:17;;;;;;;6.75;2.05;;;18.40;97.70;;;;;;4876595;29;20091;-90
2022/06/20 09:59:01;;;;;;;5.63;2.13;;;18.50;97.10;;;;;;4973384;28;20390;-91
2022/06/20 10:01:48;;;;;;;7.35;2.80;;;18.70;97.70;;;;;;4977947;28;20054;-93
2022/06/20 10:04:28;;;;;;;6.85;2.10;;;18.80;98.20;;;;;;4972478;28;20386;-88
2022/06/20 10:07:09;;;;;;;7.05;2.30;;;18.80;98.00;;;;;;4985748;28;20424;-88
2022/06/20 10:09:45;;;;;;;8.63;2.00;;;18.70;97.70;;;;;;4978223;28;20432;-90
2022/06/20 10:12:10;;;;;;;9.13;2.47;;;18.70;97.30;;;;;;4989821;28;20140;-95
2022/06/20 10:14:54;;;;;;;8.82;2.10;;;18.60;96.80;;;;;;4985765;28;20132;-88
2022/06/20 10:17:37;;;;;;;5.22;1.67;;;18.50;96.10;;;;;;4977807;28;20097;-92
2022/06/20 10:20:11;;;;;;;8.13;2.10;;;18.40;96.70;;;;;;4980713;28;20042;-91
2022/06/20 10:22:42;;;;;;;9.98;2.10;;;18.40;97.40;;;;;;4981870;28;20046;-89
2022/06/20 10:25:37;;;;;;;7.50;2.33;;;18.50;97.20;;;;;;4981168;28;20048;-87
2022/06/20 10:28:24;;;;;;;7.03;2.25;;;18.50;97.30;;;;;;4975989;28;20694;-90
2022/06/20 10:30:56;;;;;;;8.43;2.10;;;18.50;96.50;;;;;;4981082;28;20057;-86
2022/06/20 10:33:29;;;;;;;6.90;2.20;;;18.60;96.10;;;;;;4978743;28;20053;-90
2022/06/20 10:36:28;;;;;;;6.88;1.92;;;18.70;95.90;;;;;;4976314;28;20081;-90
2022/06/20 10:39:22;;;;;;;7.70;2.58;;;18.70;96.40;;;;;;4980559;28;20060;-88
2022/06/20 10:42:03;;;;;;;7.40;2.10;;;18.70;96.80;;;;;;4960187;28;20050;-87
2022/06/20 10:44:59;;;;;;;8.05;2.00;;;18.60;96.50;;;;;;4982839;28;20051;-87
2022/06/20 10:47:42;;;;;;;6.97;2.35;;;18.50;97.20;;;;;;4961300;28;20050;-92
2022/06/20 10:50:51;;;;;;;7.80;2.40;;;18.30;97.30;;;;;;4983939;28;20039;-88
2022/06/20 10:53:34;;;;;;;6.55;2.13;;;18.10;98.40;;;;;;4981899;28;20487;-87
2022/06/20 10:56:22;;;;;;;9.40;2.38;;;18.30;98.30;;;;;;4982744;28;20038;-92
2022/06/20 10:58:57;;;;;;;7.55;2.15;;;18.60;98.30;;;;;;4981334;28;20049;-94
2022/06/20 11:01:46;;;;;;;6.80;2.50;;;18.80;98.00;;;;;;4981627;28;20049;-87
2022/06/20 11:04:40;;;;;;;8.65;2.30;;;18.90;97.50;;;;;;4974767;28;20422;-90
2022/06/20 11:07:15;;;;;;;6.43;1.92;;;18.70;96.60;;;;;;4973047;28;20055;-87
2022/06/20 11:10:20;;;;;;;6.18;1.70;;;18.60;96.90;;;;;;4959229;28;20505;-89
2022/06/20 11:13:07;;;;;;;5.82;1.83;;;18.50;96.70;;;;;;4945944;28;20081;-89
2022/06/20 11:15:43;;;;;;;7.45;1.90;;;18.50;97.10;;;;;;4956781;28;20447;-88
2022/06/20 11:18:12;;;;;;;6.13;1.70;;;18.60;97.00;;;;;;4981844;28;20050;-87
2022/06/20 11:20:51;;;;;;;5.53;1.55;;;18.60;96.00;;;;;;4979974;28;20589;-88
2022/06/20 11:23:19;;;;;;;5.53;2.00;;;18.60;95.40;;;;;;4975005;28;20483;-89
2022/06/20 11:25:45;;;;;;;8.15;2.10;;;18.80;95.70;;;;;;4959348;28;20101;-88
2022/06/20 11:28:20;;;;;;;6.65;1.80;;;19.00;95.30;;;;;;4973685;28;20050;-88
2022/06/20 11:31:13;;;;;;;6.53;1.73;;;19.20;95.10;;;;;;4974546;28;20058;-86
2022/06/20 11:34:01;;;;;;;6.40;1.98;;;19.30;94.50;;;;;;4971674;28;20169;-89
2022/06/20 11:36:58;;;;;;;5.88;1.70;;;19.20;94.00;;;;;;4969362;28;20042;-90
2022/06/20 11:39:43;;;;;;;5.38;2.03;;;19.10;93.80;;;;;;4980898;28;20042;-89
2022/06/20 11:42:24;;;;;;;7.43;2.30;;;19.10;93.60;;;;;;4970314;28;20042;-84
2022/06/20 11:45:25;;;;;;;7.47;2.50;;;19.20;94.70;;;;;;4989908;28;20039;-89
2022/06/20 11:47:50;;;;;;;8.10;1.90;;;19.20;94.30;;;;;;4966343;28;20072;-91
2022/06/20 11:50:36;;;;;;;6.82;2.08;;;19.40;93.80;;;;;;4978385;28;20436;-92
2022/06/20 11:53:40;;;;;;;7.25;2.00;;;19.60;92.90;;;;;;4976663;28;20039;-90
2022/06/20 11:56:30;;;;;;;6.50;2.03;;;19.70;93.10;;;;;;4885036;29;20048;-88
2022/06/20 11:59:22;;;;;;;6.82;1.88;;;19.60;91.60;;;;;;4900515;29;20043;-86
2022/06/20 12:02:11;;;;;;;6.03;1.95;;;19.40;91.30;;;;;;4912922;29;20044;-84
2022/06/20 12:05:00;;;;;;;6.45;2.20;;;19.40;91.80;;;;;;4910189;29;20508;-85
2022/06/20 12:07:46;;;;;;;7.95;2.08;;;19.40;92.50;;;;;;4915597;29;20055;-88
2022/06/20 12:10:40;;;;;;;5.85;2.00;;;19.50;93.00;;;;;;4891164;29;20147;-88
2022/06/20 12:13:26;;;;;;;7.47;2.10;;;19.50;92.50;;;;;;4891563;29;20064;-88
2022/06/20 12:16:27;;;;;;;9.65;2.45;;;19.50;93.70;;;;;;4899487;29;20392;-93
2022/06/20 12:24:46;;;;;;;7.78;2.60;;;19.40;93.90;;;;;;4920577;29;20067;-87
2022/06/20 12:27:16;;;;;;;7.10;2.13;;;19.30;94.10;;;;;;4901820;29;20044;-86
2022/06/20 12:29:43;;;;;;;6.05;2.10;;;19.10;93.20;;;;;;4900446;29;20612;-86
2022/06/20 12:32:40;;;;;;;8.43;2.30;;;19.00;92.70;;;;;;4932174;28;20046;-87
2022/06/20 12:35:30;;;;;;;7.03;2.20;;;18.80;92.90;;;;;;4964878;28;20125;-88
2022/06/20 12:38:18;;;;;;;6.85;2.08;;;18.80;93.00;;;;;;4977758;28;20109;-84
2022/06/20 12:40:48;;;;;;;8.07;2.28;;;18.90;93.70;;;;;;4961470;28;20050;-86
2022/06/20 12:43:26;;;;;;;6.57;2.13;;;19.00;93.20;;;;;;4978546;28;20038;-88
2022/06/20 12:46:00;;;;;;;6.70;2.40;;;19.00;93.00;;;;;;4977968;28;20050;-87
2022/06/20 12:48:28;;;;;;;6.38;2.40;;;18.90;93.90;;;;;;4974820;28;20074;-87
2022/06/20 12:51:12;;;;;;;7.78;2.97;;;18.80;93.90;;;;;;4969539;28;20042;-88
2022/06/20 12:53:51;;;;;;;5.78;2.20;;;18.70;94.40;;;;;;4962008;28;20045;-85
2022/06/20 12:56:29;;;;;;;8.90;2.63;;;18.60;95.30;;;;;;4978377;28;20542;-83
2022/06/20 12:59:18;;;;;;;6.13;2.40;;;18.50;95.40;;;;;;4982284;28;20051;-85
2022/06/20 13:02:05;;;;;;;9.55;2.50;;;18.40;95.50;;;;;;4983226;28;20043;-86
2022/06/20 13:05:00;;;;;;;5.68;2.30;;;18.50;95.50;;;;;;4976729;28;20116;-88
2022/06/20 13:07:28;;;;;;;6.78;2.20;;;18.60;95.30;;;;;;4983749;28;20062;-89
2022/06/20 13:10:12;;;;;;;6.45;2.85;;;18.70;95.30;;;;;;4978772;28;20055;-87
2022/06/20 13:13:09;;;;;;;10.00;2.10;;;18.80;94.70;;;;;;4970212;28;20053;-87
2022/06/20 13:15:59;;;;;;;7.70;2.03;;;18.90;94.40;;;;;;4969237;28;20046;-86
2022/06/20 13:18:57;;;;;;;5.30;1.90;;;19.10;93.50;;;;;;4981590;28;20046;-88
2022/06/20 13:21:43;;;;;;;6.70;2.13;;;19.10;93.10;;;;;;4968425;28;20449;-87
2022/06/20 13:24:44;;;;;;;7.68;2.40;;;19.10;94.00;;;;;;4984068;28;20047;-88
2022/06/20 13:27:24;;;;;;;7.17;2.53;;;19.00;94.50;;;;;;4977889;28;20050;-87
2022/06/20 13:29:52;;;;;;;5.47;2.45;;;18.90;94.50;;;;;;4982323;28;20070;-89
2022/06/20 13:32:35;;;;;;;5.55;2.10;;;18.80;94.50;;;;;;4982342;28;20054;-88
2022/06/20 13:35:28;;;;;;;5.13;1.90;;;18.80;94.50;;;;;;4973671;28;20093;-85
2022/06/20 13:38:17;;;;;;;5.93;2.00;;;18.70;95.10;;;;;;4969698;28;20047;-86
2022/06/20 13:41:18;;;;;;;6.20;2.05;;;18.80;94.70;;;;;;4955956;28;20588;-89
2022/06/20 13:44:02;;;;;;;4.88;1.90;;;19.00;94.70;;;;;;4928664;29;20048;-87
2022/06/20 13:46:28;;;;;;;7.53;2.25;;;18.90;94.10;;;;;;4912085;29;20468;-85
2022/06/20 13:49:10;;;;;;;8.15;2.42;;;19.00;94.30;;;;;;4913811;29;20035;-89
2022/06/20 13:52:04;;;;;;;7.20;2.00;;;19.10;94.40;;;;;;4896679;29;20432;-88
2022/06/20 13:54:42;;;;;;;9.32;2.30;;;19.00;93.90;;;;;;4910471;29;20135;-89
2022/06/20 13:57:16;;;;;;;7.55;2.10;;;19.00;93.60;;;;;;4903860;29;20087;-93